Time;durP1;ratioP1;P1;durP2;ratioP2;P2;SDS_P1;SDS_P2;PMS_P1;PMS_P2;Temp;Humidity;BMP_temperature;BMP_pressure;BME280_temperature;BME280_humidity;BME280_pressure;Samples;Min_cycle;Max_cycle;Signal;HPM_P1;HPM_P2
2022/07/12 00:01:56;;;;;;;2.35;1.10;;;22.20;91.80;;;;;;5003352;28;20022;-85
2022/07/12 00:04:22;;;;;;;3.50;1.17;;;22.20;92.10;;;;;;4996380;28;20429;-85
2022/07/12 00:06:48;;;;;;;2.88;1.10;;;22.20;91.80;;;;;;4998531;28;20092;-85
2022/07/12 00:09:13;;;;;;;3.20;1.02;;;22.20;91.80;;;;;;4998184;28;20030;-85
2022/07/12 00:11:39;;;;;;;1.38;1.00;;;22.10;91.80;;;;;;5009894;28;20527;-85
2022/07/12 00:14:06;;;;;;;2.95;1.13;;;22.10;91.70;;;;;;5004909;28;20124;-85
2022/07/12 00:16:32;;;;;;;1.48;1.10;;;22.10;91.70;;;;;;4996439;28;20121;-85
2022/07/12 00:18:58;;;;;;;3.53;1.20;;;22.10;92.10;;;;;;5003319;28;20080;-85
2022/07/12 00:21:24;;;;;;;1.55;1.02;;;22.10;91.70;;;;;;5001334;28;20476;-85
2022/07/12 00:23:50;;;;;;;1.50;1.23;;;22.10;91.70;;;;;;4997072;28;20041;-85
2022/07/12 00:26:16;;;;;;;2.38;1.30;;;22.10;91.80;;;;;;5029153;28;20092;-85
2022/07/12 00:28:41;;;;;;;1.10;0.80;;;22.10;91.70;;;;;;4998569;28;20049;-84
2022/07/12 00:31:07;;;;;;;1.38;1.10;;;22.10;92.00;;;;;;4995429;28;20088;-85
2022/07/12 00:33:33;;;;;;;2.30;1.00;;;22.10;91.70;;;;;;5000597;28;20084;-85
2022/07/12 00:35:58;;;;;;;4.97;1.25;;;22.00;91.60;;;;;;4989747;28;20122;-85
2022/07/12 00:38:24;;;;;;;1.58;0.90;;;22.00;91.60;;;;;;4996086;28;20034;-85
2022/07/12 00:40:50;;;;;;;2.13;1.00;;;22.00;91.70;;;;;;4994637;28;20085;-85
2022/07/12 00:43:16;;;;;;;2.17;1.10;;;22.00;91.70;;;;;;4996120;28;20494;-85
2022/07/12 00:45:42;;;;;;;2.20;1.00;;;22.00;91.70;;;;;;5012786;28;20493;-86
2022/07/12 00:48:08;;;;;;;1.65;1.00;;;22.00;91.60;;;;;;4999450;28;20420;-85
2022/07/12 00:50:34;;;;;;;2.25;1.00;;;22.00;91.60;;;;;;5001693;28;20047;-85
2022/07/12 00:53:00;;;;;;;2.03;0.90;;;21.90;91.60;;;;;;4990619;28;20038;-86
2022/07/12 00:55:26;;;;;;;1.00;0.90;;;22.00;91.60;;;;;;4995468;28;20060;-85
2022/07/12 00:57:51;;;;;;;2.05;1.10;;;21.90;91.60;;;;;;5019258;28;20384;-85
2022/07/12 01:00:26;;;;;;;6.45;1.30;;;21.90;91.60;;;;;;5012755;28;20033;-85
2022/07/12 01:02:57;;;;;;;1.42;1.00;;;21.90;91.60;;;;;;5006788;28;20035;-85
2022/07/12 01:05:23;;;;;;;1.40;1.20;;;21.90;91.60;;;;;;5019843;28;20089;-85
2022/07/12 01:07:50;;;;;;;2.70;1.20;;;21.90;91.60;;;;;;5008169;28;20029;-85
2022/07/12 01:10:16;;;;;;;4.30;1.23;;;21.90;91.60;;;;;;5034863;28;20025;-85
2022/07/12 01:12:42;;;;;;;1.88;1.30;;;21.90;91.60;;;;;;5002025;28;20026;-85
2022/07/12 01:15:09;;;;;;;3.83;1.38;;;21.90;91.60;;;;;;5008636;28;20056;-85
2022/07/12 01:17:35;;;;;;;2.75;1.30;;;21.90;91.60;;;;;;5008302;28;20386;-85
2022/07/12 01:20:01;;;;;;;3.55;1.23;;;21.90;91.60;;;;;;5010985;28;20056;-85
2022/07/12 01:22:31;;;;;;;5.68;1.30;;;21.90;91.50;;;;;;5008031;28;20061;-85
2022/07/12 01:24:57;;;;;;;2.55;1.20;;;21.90;91.60;;;;;;5000221;28;20445;-85
2022/07/12 01:27:23;;;;;;;2.15;1.08;;;21.80;91.50;;;;;;4998329;28;20037;-85
2022/07/12 01:29:48;;;;;;;1.80;1.40;;;21.90;91.60;;;;;;5019461;28;20038;-85
2022/07/12 01:32:24;;;;;;;2.67;1.48;;;21.80;91.50;;;;;;5023951;28;20420;-85
2022/07/12 01:34:55;;;;;;;1.85;1.20;;;21.80;91.50;;;;;;5003363;28;20564;-85
2022/07/12 01:37:23;;;;;;;1.52;1.20;;;21.80;91.50;;;;;;5016758;28;20022;-85
2022/07/12 01:39:52;;;;;;;1.95;1.02;;;21.80;91.50;;;;;;5007627;28;20025;-85
2022/07/12 01:42:19;;;;;;;1.10;0.98;;;21.80;91.50;;;;;;4998718;28;20075;-85
2022/07/12 01:44:45;;;;;;;1.50;1.10;;;21.80;91.50;;;;;;5012653;28;20566;-85
2022/07/12 01:47:11;;;;;;;1.25;0.93;;;21.80;91.50;;;;;;4998277;28;20029;-85
2022/07/12 01:49:37;;;;;;;1.33;1.10;;;21.80;91.50;;;;;;5019031;28;20041;-85
2022/07/12 01:52:03;;;;;;;2.33;1.27;;;21.70;91.50;;;;;;5002981;28;20025;-85
2022/07/12 01:54:29;;;;;;;1.67;1.20;;;21.80;91.50;;;;;;5027796;28;20037;-85
2022/07/12 01:56:55;;;;;;;1.40;1.00;;;21.80;91.50;;;;;;5008808;28;20471;-85
2022/07/12 01:59:22;;;;;;;1.20;0.98;;;21.80;91.50;;;;;;4994321;28;20029;-85
2022/07/12 02:01:48;;;;;;;2.70;1.02;;;21.80;91.50;;;;;;4999619;28;20400;-85
2022/07/12 02:04:18;;;;;;;1.58;1.17;;;21.70;91.40;;;;;;4997909;28;20029;-85
2022/07/12 02:06:44;;;;;;;2.08;1.25;;;21.70;91.50;;;;;;5016836;28;20088;-85
2022/07/12 02:09:11;;;;;;;1.50;1.05;;;21.70;91.50;;;;;;5016484;28;20528;-85
2022/07/12 02:11:37;;;;;;;1.50;1.08;;;21.70;91.50;;;;;;5000353;28;20056;-85
2022/07/12 02:14:03;;;;;;;1.65;1.20;;;21.70;91.40;;;;;;4998423;28;20038;-84
2022/07/12 02:16:28;;;;;;;1.88;1.05;;;21.70;91.40;;;;;;4986874;28;20082;-85
2022/07/12 02:18:54;;;;;;;2.80;1.05;;;21.70;91.40;;;;;;4997215;28;20030;-85
2022/07/12 02:21:20;;;;;;;1.30;1.00;;;21.70;91.40;;;;;;4997266;28;20030;-85
2022/07/12 02:23:45;;;;;;;1.38;1.20;;;21.70;91.40;;;;;;4998252;28;20393;-85
2022/07/12 02:26:11;;;;;;;1.63;1.30;;;21.60;91.40;;;;;;4999369;28;20026;-85
2022/07/12 02:28:37;;;;;;;1.85;1.40;;;21.60;91.40;;;;;;5002329;28;20049;-85
2022/07/12 02:31:02;;;;;;;1.33;1.10;;;21.60;91.40;;;;;;5024309;28;20389;-85
2022/07/12 02:33:28;;;;;;;5.35;1.30;;;21.60;91.40;;;;;;5014557;28;20485;-85
2022/07/12 02:35:54;;;;;;;1.65;1.13;;;21.60;91.40;;;;;;4997973;28;20034;-85
2022/07/12 02:38:22;;;;;;;2.33;1.17;;;21.60;91.40;;;;;;5023741;28;20496;-85
2022/07/12 02:40:54;;;;;;;1.38;1.17;;;21.50;91.40;;;;;;5013719;28;20026;-85
2022/07/12 02:43:24;;;;;;;1.60;1.20;;;21.60;91.40;;;;;;4998150;28;20611;-85
2022/07/12 02:45:51;;;;;;;1.83;1.10;;;21.50;91.40;;;;;;5018936;28;20029;-85
2022/07/12 02:48:17;;;;;;;1.30;0.82;;;21.50;91.40;;;;;;4996882;28;20120;-86
2022/07/12 02:50:43;;;;;;;2.75;1.50;;;21.50;91.30;;;;;;4999309;28;20140;-85
2022/07/12 02:53:09;;;;;;;2.58;1.30;;;21.50;91.40;;;;;;4996965;28;20076;-85
2022/07/12 02:55:36;;;;;;;1.95;1.20;;;21.50;91.40;;;;;;4999295;28;20071;-85
2022/07/12 02:58:03;;;;;;;2.03;1.40;;;21.50;91.30;;;;;;4997775;28;20037;-85
2022/07/12 03:00:29;;;;;;;2.15;1.60;;;21.50;91.40;;;;;;4997168;28;20023;-85
2022/07/12 03:02:55;;;;;;;1.90;1.40;;;21.50;91.30;;;;;;4996370;28;20041;-85
2022/07/12 03:05:21;;;;;;;2.38;1.30;;;21.50;91.30;;;;;;4996371;28;20069;-85
2022/07/12 03:07:46;;;;;;;1.70;1.20;;;21.50;91.40;;;;;;5006281;28;20030;-85
2022/07/12 03:10:12;;;;;;;2.85;1.13;;;21.50;91.40;;;;;;4996508;28;20416;-85
2022/07/12 03:12:38;;;;;;;8.82;1.50;;;21.50;91.40;;;;;;5013893;28;20041;-85
2022/07/12 03:15:05;;;;;;;1.50;1.10;;;21.40;91.40;;;;;;4997312;28;20054;-85
2022/07/12 03:17:32;;;;;;;1.20;1.10;;;21.40;91.40;;;;;;4997285;28;20026;-85
2022/07/12 03:19:57;;;;;;;3.42;1.10;;;21.40;91.40;;;;;;5000416;28;20022;-85
2022/07/12 03:22:23;;;;;;;2.00;1.50;;;21.40;91.40;;;;;;4996962;28;20040;-85
2022/07/12 03:24:49;;;;;;;2.20;1.52;;;21.40;91.40;;;;;;5024869;28;20032;-85
2022/07/12 03:27:15;;;;;;;1.30;1.20;;;21.40;91.40;;;;;;5002691;28;20029;-85
2022/07/12 03:29:40;;;;;;;1.23;1.13;;;21.40;91.40;;;;;;4995715;28;20026;-85
2022/07/12 03:32:07;;;;;;;2.22;1.30;;;21.40;91.50;;;;;;5025064;28;20033;-85
2022/07/12 03:34:33;;;;;;;1.50;1.20;;;21.40;91.50;;;;;;5005804;28;20513;-85
2022/07/12 03:36:58;;;;;;;1.90;1.30;;;21.40;91.50;;;;;;5004231;28;20017;-85
2022/07/12 03:39:24;;;;;;;3.05;1.30;;;21.40;91.50;;;;;;4999059;28;20025;-85
2022/07/12 03:41:50;;;;;;;1.25;1.15;;;21.40;91.50;;;;;;4994438;28;20501;-85
2022/07/12 03:44:16;;;;;;;2.35;1.40;;;21.40;91.50;;;;;;4993799;28;20037;-85
2022/07/12 03:46:41;;;;;;;1.77;1.48;;;21.40;91.60;;;;;;5009051;28;20034;-86
2022/07/12 03:49:07;;;;;;;2.67;1.38;;;21.30;91.50;;;;;;4998053;28;20033;-85
2022/07/12 03:51:33;;;;;;;2.78;1.35;;;21.40;91.60;;;;;;4993360;28;20030;-85
2022/07/12 03:53:58;;;;;;;1.95;1.45;;;21.40;91.60;;;;;;4997356;28;20396;-85
2022/07/12 03:59:08;;;;;;;1.50;1.20;;;21.30;91.60;;;;;;5007177;28;20033;-85
2022/07/12 04:01:34;;;;;;;1.92;1.40;;;21.30;91.70;;;;;;5011350;28;20022;-85
2022/07/12 04:04:00;;;;;;;4.07;1.48;;;21.30;91.70;;;;;;4998892;28;20045;-85
2022/07/12 04:06:25;;;;;;;2.33;1.55;;;21.30;91.70;;;;;;5032160;28;20521;-85
2022/07/12 04:08:51;;;;;;;2.50;1.20;;;21.30;91.70;;;;;;4999224;28;20025;-85
2022/07/12 04:11:16;;;;;;;3.05;1.40;;;21.30;91.70;;;;;;5001809;28;20481;-85
2022/07/12 04:13:42;;;;;;;1.67;1.30;;;21.30;91.70;;;;;;4995614;28;20073;-85
2022/07/12 04:16:08;;;;;;;2.88;1.40;;;21.30;91.80;;;;;;4996767;28;20076;-85
2022/07/12 04:18:33;;;;;;;3.33;1.40;;;21.30;91.80;;;;;;4994473;28;20057;-85
2022/07/12 04:20:59;;;;;;;3.42;1.42;;;21.30;91.80;;;;;;4999336;28;20133;-85
2022/07/12 04:23:25;;;;;;;2.17;1.42;;;21.30;91.80;;;;;;5011609;28;20104;-85
2022/07/12 04:25:51;;;;;;;3.53;1.63;;;21.20;91.80;;;;;;4984028;28;20026;-85
2022/07/12 04:28:17;;;;;;;2.45;1.52;;;21.30;91.80;;;;;;5013360;28;20030;-85
2022/07/12 04:30:44;;;;;;;3.42;1.60;;;21.30;91.80;;;;;;5001776;28;20040;-85
2022/07/12 04:33:10;;;;;;;2.72;1.58;;;21.20;91.80;;;;;;4999009;28;20433;-85
2022/07/12 04:35:36;;;;;;;3.05;1.63;;;21.30;91.90;;;;;;4996214;28;20389;-85
2022/07/12 04:38:03;;;;;;;3.70;1.60;;;21.30;91.90;;;;;;5017847;28;20033;-85
2022/07/12 04:40:28;;;;;;;2.80;1.40;;;21.20;91.90;;;;;;5007466;28;20480;-85
2022/07/12 04:42:54;;;;;;;1.75;1.40;;;21.20;91.90;;;;;;5025423;28;20026;-85
2022/07/12 04:45:20;;;;;;;1.92;1.40;;;21.20;91.90;;;;;;4995187;28;20041;-85
2022/07/12 04:47:46;;;;;;;1.58;1.38;;;21.20;92.00;;;;;;5005469;28;20022;-85
2022/07/12 04:50:12;;;;;;;2.85;1.75;;;21.20;92.00;;;;;;5005811;28;20089;-85
2022/07/12 04:52:37;;;;;;;3.83;1.70;;;21.20;92.00;;;;;;5002762;28;20481;-86
2022/07/12 04:55:05;;;;;;;2.63;1.40;;;21.20;92.00;;;;;;4998517;28;20032;-85
2022/07/12 04:57:30;;;;;;;3.15;1.70;;;21.20;92.10;;;;;;4998296;28;20408;-85
2022/07/12 04:59:56;;;;;;;1.95;1.40;;;21.20;92.10;;;;;;5020145;28;20097;-86
2022/07/12 05:02:22;;;;;;;3.03;1.58;;;21.20;92.10;;;;;;4995994;28;20026;-85
2022/07/12 05:04:47;;;;;;;3.15;1.60;;;21.20;92.10;;;;;;5007610;28;20515;-85
2022/07/12 05:07:13;;;;;;;1.33;1.23;;;21.20;92.20;;;;;;4996289;28;20476;-85
2022/07/12 05:09:38;;;;;;;2.03;1.73;;;21.20;92.20;;;;;;5010554;28;20026;-85
2022/07/12 05:12:05;;;;;;;2.70;1.50;;;21.20;92.30;;;;;;5008872;28;20030;-85
2022/07/12 05:14:31;;;;;;;3.15;1.40;;;21.20;92.30;;;;;;5001725;28;20072;-85
2022/07/12 05:16:57;;;;;;;2.97;1.90;;;21.20;92.30;;;;;;5003426;28;20442;-85
2022/07/12 05:19:23;;;;;;;2.25;1.40;;;21.20;92.30;;;;;;4997188;28;20037;-86
2022/07/12 05:21:49;;;;;;;4.38;1.58;;;21.20;92.30;;;;;;4996178;28;20022;-85
2022/07/12 05:24:15;;;;;;;2.17;1.40;;;21.20;92.40;;;;;;4998530;28;20026;-85
2022/07/12 05:26:41;;;;;;;3.92;1.70;;;21.20;92.50;;;;;;4999778;28;20088;-85
2022/07/12 05:29:06;;;;;;;5.72;1.60;;;21.20;92.50;;;;;;4998344;28;20104;-86
2022/07/12 05:31:32;;;;;;;2.72;1.45;;;21.20;92.50;;;;;;5007793;28;20090;-85
2022/07/12 05:33:59;;;;;;;1.77;1.60;;;21.20;92.50;;;;;;5004207;28;20437;-85
2022/07/12 05:36:24;;;;;;;3.00;1.70;;;21.20;92.60;;;;;;4997280;28;20168;-85
2022/07/12 05:38:50;;;;;;;2.53;1.80;;;21.20;92.60;;;;;;4995056;28;20112;-85
2022/07/12 05:41:16;;;;;;;1.85;1.48;;;21.20;92.60;;;;;;5003348;28;20030;-85
2022/07/12 05:43:41;;;;;;;2.90;1.50;;;21.20;92.70;;;;;;5017919;28;20029;-85
2022/07/12 05:46:08;;;;;;;2.75;1.80;;;21.20;92.70;;;;;;4994776;28;20508;-85
2022/07/12 05:48:34;;;;;;;1.75;1.45;;;21.20;92.80;;;;;;5002790;28;20103;-85
2022/07/12 05:53:21;;;;;;;2.13;1.63;;;21.20;92.80;;;;;;4999893;28;20505;-85
2022/07/12 05:53:46;;;;;;;3.45;1.33;;;21.20;92.80;;;;;;5019332;28;20030;-85
2022/07/12 05:56:12;;;;;;;2.47;1.60;;;21.20;92.80;;;;;;4997750;28;20375;-84
2022/07/12 05:58:37;;;;;;;4.22;1.83;;;21.20;92.90;;;;;;5022546;28;20018;-85
2022/07/12 06:01:03;;;;;;;1.60;1.50;;;21.20;92.90;;;;;;4999546;28;20405;-85
2022/07/12 06:03:29;;;;;;;3.03;1.67;;;21.20;93.00;;;;;;5014847;28;20029;-85
2022/07/12 06:05:54;;;;;;;1.98;1.58;;;21.20;93.30;;;;;;5002384;28;20037;-85
2022/07/12 06:08:20;;;;;;;2.03;1.50;;;21.20;93.00;;;;;;5020744;28;20025;-85
2022/07/12 06:10:46;;;;;;;3.03;1.60;;;21.20;93.00;;;;;;4998344;28;20026;-84
2022/07/12 06:13:11;;;;;;;1.73;1.45;;;21.30;93.00;;;;;;5018018;28;20105;-85
2022/07/12 06:15:37;;;;;;;2.15;1.60;;;21.30;93.10;;;;;;5006620;28;20076;-85
2022/07/12 06:18:03;;;;;;;1.92;1.50;;;21.20;93.00;;;;;;5016203;28;20030;-85
2022/07/12 06:20:29;;;;;;;2.30;1.73;;;21.20;93.10;;;;;;4998206;28;20056;-85
2022/07/12 06:22:55;;;;;;;2.35;1.50;;;21.20;93.10;;;;;;5021480;28;20030;-85
2022/07/12 06:25:21;;;;;;;1.50;1.10;;;21.30;93.10;;;;;;4995313;28;20037;-85
2022/07/12 06:27:48;;;;;;;1.48;1.38;;;21.20;93.10;;;;;;4999968;28;20030;-85
2022/07/12 06:30:16;;;;;;;1.98;1.13;;;21.30;93.20;;;;;;4997068;28;20528;-85
2022/07/12 06:32:43;;;;;;;1.17;1.02;;;21.20;93.20;;;;;;5015552;28;20235;-85
2022/07/12 06:35:08;;;;;;;2.03;1.17;;;21.30;93.20;;;;;;5021060;28;20057;-85
2022/07/12 06:37:34;;;;;;;1.20;1.10;;;21.20;93.20;;;;;;4989013;28;20092;-85
2022/07/12 06:40:00;;;;;;;2.20;1.70;;;21.20;93.20;;;;;;4995872;28;20486;-85
2022/07/12 06:42:25;;;;;;;1.50;1.38;;;21.30;93.30;;;;;;5022259;28;20100;-85
2022/07/12 06:44:51;;;;;;;2.47;1.30;;;21.30;93.40;;;;;;4998031;28;20067;-86
2022/07/12 06:47:16;;;;;;;2.33;1.35;;;21.30;93.30;;;;;;5015399;28;20025;-85
2022/07/12 06:49:42;;;;;;;1.92;1.15;;;21.30;93.30;;;;;;5002753;28;20053;-85
2022/07/12 06:52:08;;;;;;;1.13;1.02;;;21.30;93.40;;;;;;5016244;28;20038;-85
2022/07/12 06:54:33;;;;;;;1.40;1.20;;;21.30;93.40;;;;;;4996408;28;20112;-85
2022/07/12 06:56:59;;;;;;;1.90;1.23;;;21.30;93.40;;;;;;5019112;28;20070;-85
2022/07/12 06:59:25;;;;;;;2.75;1.25;;;21.30;93.40;;;;;;4998984;28;20121;-85
2022/07/12 07:01:52;;;;;;;2.08;1.30;;;21.40;93.40;;;;;;5004121;28;20117;-85
2022/07/12 07:04:18;;;;;;;2.75;1.20;;;21.40;93.40;;;;;;4992129;28;20141;-85
2022/07/12 07:06:43;;;;;;;2.13;1.10;;;21.40;93.40;;;;;;5019489;28;20037;-85
2022/07/12 07:09:10;;;;;;;1.45;1.00;;;21.40;93.40;;;;;;5010598;28;20065;-84
2022/07/12 07:11:36;;;;;;;2.58;1.17;;;21.40;93.50;;;;;;5001772;28;20030;-85
2022/07/12 07:14:02;;;;;;;2.78;1.30;;;21.40;93.40;;;;;;5025489;28;20091;-85
2022/07/12 07:16:28;;;;;;;9.02;1.45;;;21.40;93.40;;;;;;4996754;28;20462;-85
2022/07/12 07:18:54;;;;;;;5.63;1.30;;;21.10;95.40;;;;;;4993701;28;20083;-86
2022/07/12 07:21:20;;;;;;;4.47;1.50;;;21.00;95.30;;;;;;4993604;28;20018;-85
2022/07/12 07:23:45;;;;;;;2.95;1.27;;;21.00;95.30;;;;;;4993014;28;20029;-86
2022/07/12 07:26:11;;;;;;;3.47;1.10;;;21.10;95.10;;;;;;4999519;28;20459;-85
2022/07/12 07:30:52;;;;;;;3.92;1.10;;;21.10;95.00;;;;;;4988348;28;20532;-85
2022/07/12 07:31:23;;;;;;;5.50;1.40;;;21.20;95.00;;;;;;4997675;28;20030;-84
2022/07/12 07:33:48;;;;;;;3.53;1.23;;;21.20;94.90;;;;;;5009801;28;20045;-85
2022/07/12 07:36:14;;;;;;;3.90;1.00;;;21.30;94.80;;;;;;5005862;28;20069;-84
2022/07/12 07:38:40;;;;;;;1.38;1.00;;;21.30;94.70;;;;;;4986359;28;20030;-85
2022/07/12 07:41:06;;;;;;;4.82;1.38;;;21.30;94.60;;;;;;4968180;28;20022;-84
2022/07/12 07:43:31;;;;;;;2.58;1.27;;;21.30;94.50;;;;;;4995131;28;20101;-85
2022/07/12 07:45:57;;;;;;;3.50;1.15;;;21.40;94.50;;;;;;4992379;28;20057;-85
2022/07/12 07:48:23;;;;;;;4.00;1.15;;;21.40;94.50;;;;;;4979233;28;20034;-84
2022/07/12 07:50:48;;;;;;;2.95;0.90;;;21.40;94.40;;;;;;4992691;28;20125;-84
2022/07/12 07:53:14;;;;;;;1.83;0.90;;;21.40;94.30;;;;;;4996208;28;20022;-85
2022/07/12 07:55:40;;;;;;;1.83;0.80;;;21.40;94.30;;;;;;4974339;28;20026;-85
2022/07/12 07:58:06;;;;;;;1.70;0.90;;;21.40;94.30;;;;;;4982545;28;20030;-85
2022/07/12 08:00:32;;;;;;;2.05;1.10;;;21.40;94.30;;;;;;4983507;28;20513;-85
2022/07/12 08:02:58;;;;;;;5.35;1.30;;;21.50;94.30;;;;;;4981342;28;20072;-85
2022/07/12 08:05:24;;;;;;;2.38;1.00;;;21.50;94.30;;;;;;4975014;28;20030;-84
2022/07/12 08:07:50;;;;;;;3.60;0.90;;;21.50;94.20;;;;;;4995157;28;20085;-84
2022/07/12 08:10:16;;;;;;;2.35;1.08;;;21.50;94.20;;;;;;4986969;28;20026;-85
2022/07/12 08:12:41;;;;;;;2.63;1.10;;;21.50;94.10;;;;;;4974896;28;20481;-84
2022/07/12 08:15:08;;;;;;;1.15;0.70;;;21.60;94.00;;;;;;4985077;28;20119;-85
2022/07/12 08:17:33;;;;;;;4.25;1.10;;;21.60;93.90;;;;;;4996772;28;20018;-84
2022/07/12 08:20:00;;;;;;;2.95;0.85;;;21.60;93.90;;;;;;4999172;28;20033;-84
2022/07/12 08:22:25;;;;;;;1.70;0.80;;;21.60;94.20;;;;;;4991443;28;20030;-85
2022/07/12 08:24:51;;;;;;;4.95;1.05;;;21.60;93.80;;;;;;5011460;28;20355;-84
2022/07/12 08:27:17;;;;;;;2.20;0.70;;;21.70;93.80;;;;;;5009061;28;20022;-84
2022/07/12 08:29:42;;;;;;;2.20;0.98;;;21.70;93.80;;;;;;4999011;28;20021;-85
2022/07/12 08:32:08;;;;;;;2.75;1.00;;;21.70;93.70;;;;;;4986212;28;20030;-85
2022/07/12 08:34:34;;;;;;;1.77;0.80;;;21.70;93.60;;;;;;4999505;28;20052;-85
2022/07/12 08:37:00;;;;;;;1.90;0.90;;;21.70;93.60;;;;;;4991752;28;20152;-84
2022/07/12 08:39:25;;;;;;;1.30;0.75;;;21.70;93.60;;;;;;4995320;28;20037;-85
2022/07/12 08:41:51;;;;;;;1.67;0.63;;;21.80;93.60;;;;;;4992948;28;20112;-85
2022/07/12 08:44:17;;;;;;;2.92;0.70;;;21.80;93.50;;;;;;5013121;28;20049;-85
2022/07/12 08:46:42;;;;;;;1.75;0.75;;;21.80;93.50;;;;;;4994477;28;20076;-85
2022/07/12 08:49:09;;;;;;;1.63;0.80;;;21.90;93.40;;;;;;5007360;28;20030;-84
2022/07/12 08:51:35;;;;;;;5.65;1.30;;;21.90;93.40;;;;;;5008440;28;20022;-84
2022/07/12 08:54:07;;;;;;;1.10;0.70;;;21.90;93.30;;;;;;4994805;28;20046;-84
2022/07/12 08:56:37;;;;;;;1.67;0.82;;;22.00;93.30;;;;;;5007743;28;20026;-83
2022/07/12 08:59:20;;;;;;;3.60;1.10;;;21.90;93.30;;;;;;4993475;28;20394;-84
2022/07/12 09:01:56;;;;;;;1.95;0.95;;;22.00;93.30;;;;;;4994999;28;20121;-84
2022/07/12 09:04:30;;;;;;;1.33;0.80;;;22.00;93.30;;;;;;4994651;28;20026;-84
2022/07/12 09:06:55;;;;;;;1.85;0.95;;;22.00;93.20;;;;;;4993876;28;20315;-84
2022/07/12 09:09:28;;;;;;;2.25;0.70;;;22.00;93.20;;;;;;4992996;28;20049;-84
2022/07/12 09:11:54;;;;;;;1.40;0.80;;;22.00;93.20;;;;;;4990770;28;20071;-84
2022/07/12 09:14:20;;;;;;;2.72;0.73;;;22.00;93.20;;;;;;5015819;28;20072;-84
2022/07/12 09:17:01;;;;;;;1.83;0.90;;;22.00;93.20;;;;;;4996306;28;20388;-84
2022/07/12 09:19:26;;;;;;;1.17;0.65;;;22.00;93.20;;;;;;4996450;28;20026;-84
2022/07/12 09:21:54;;;;;;;1.55;0.82;;;22.00;93.10;;;;;;4994991;28;20362;-85
2022/07/12 09:24:24;;;;;;;1.30;0.50;;;22.10;93.10;;;;;;4994471;28;20037;-85
2022/07/12 09:26:59;;;;;;;1.50;0.70;;;22.10;93.00;;;;;;5007366;28;20054;-85
2022/07/12 09:29:25;;;;;;;1.70;0.90;;;22.20;92.90;;;;;;5001065;28;20029;-85
2022/07/12 09:37:23;;;;;;;1.95;0.93;;;22.30;92.70;;;;;;5006295;28;20029;-85
2022/07/12 09:39:49;;;;;;;1.30;0.70;;;22.30;92.60;;;;;;4993113;28;20033;-85
2022/07/12 09:42:15;;;;;;;1.48;0.73;;;22.40;92.60;;;;;;4996175;28;20073;-85
2022/07/12 09:44:42;;;;;;;1.10;0.70;;;22.40;92.60;;;;;;4994405;28;20489;-85
2022/07/12 09:47:13;;;;;;;1.42;0.55;;;22.40;92.50;;;;;;4990399;28;20029;-85
2022/07/12 09:49:42;;;;;;;1.23;0.85;;;22.40;92.40;;;;;;5013654;28;20030;-85
2022/07/12 09:52:12;;;;;;;0.80;0.63;;;22.50;92.40;;;;;;4989374;28;20082;-86
2022/07/12 09:54:41;;;;;;;0.90;0.70;;;22.50;92.50;;;;;;4992041;28;20068;-85
2022/07/12 09:57:19;;;;;;;0.80;0.60;;;22.50;92.40;;;;;;5013313;28;20577;-85
2022/07/12 09:59:46;;;;;;;1.23;0.60;;;22.50;92.40;;;;;;5005751;28;20049;-85
2022/07/12 10:02:15;;;;;;;2.88;0.60;;;22.60;92.40;;;;;;4999020;28;20075;-85
2022/07/12 10:04:42;;;;;;;1.58;0.65;;;22.60;92.30;;;;;;5006413;28;20095;-85
2022/07/12 10:07:13;;;;;;;1.10;0.70;;;22.60;92.30;;;;;;4996191;28;20026;-85
2022/07/12 10:09:40;;;;;;;4.28;0.80;;;22.60;92.20;;;;;;4995509;28;20022;-85
2022/07/12 10:12:08;;;;;;;2.65;0.75;;;22.60;92.30;;;;;;4993061;28;20076;-85
2022/07/12 10:14:34;;;;;;;1.73;0.70;;;22.60;92.20;;;;;;4996781;28;20069;-85
2022/07/12 10:17:00;;;;;;;1.15;0.68;;;22.70;92.20;;;;;;4994940;28;20480;-85
2022/07/12 10:19:32;;;;;;;1.30;0.60;;;22.70;92.10;;;;;;5018100;28;20022;-85
2022/07/12 10:22:00;;;;;;;2.88;0.85;;;22.80;92.10;;;;;;5010356;28;20029;-85
2022/07/12 10:24:47;;;;;;;3.60;0.70;;;22.70;92.00;;;;;;4993576;28;20528;-85
2022/07/12 10:27:13;;;;;;;0.98;0.68;;;22.80;92.00;;;;;;5001633;28;20033;-86
2022/07/12 10:29:48;;;;;;;1.83;0.70;;;22.90;92.00;;;;;;4991461;28;20034;-85
2022/07/12 10:32:25;;;;;;;1.42;0.70;;;22.90;91.90;;;;;;4995572;28;20030;-86
2022/07/12 10:35:05;;;;;;;1.92;0.65;;;22.90;91.90;;;;;;4994498;28;20041;-85
2022/07/12 10:37:32;;;;;;;0.70;0.50;;;22.90;91.90;;;;;;4989276;28;20022;-85
2022/07/12 10:40:11;;;;;;;1.42;0.65;;;22.90;91.90;;;;;;4996422;28;20032;-85
2022/07/12 10:42:37;;;;;;;1.02;0.60;;;23.00;91.80;;;;;;5003562;28;20435;-85
2022/07/12 10:45:14;;;;;;;0.95;0.52;;;23.00;91.80;;;;;;4994478;28;20109;-85
2022/07/12 10:48:01;;;;;;;1.02;0.70;;;23.00;91.70;;;;;;4991334;28;20371;-85
2022/07/12 10:50:42;;;;;;;0.60;0.57;;;23.00;91.70;;;;;;5011842;28;20026;-85
2022/07/12 10:53:38;;;;;;;1.33;0.70;;;23.10;91.70;;;;;;5018500;28;20040;-85
2022/07/12 10:56:06;;;;;;;1.20;0.77;;;23.00;91.70;;;;;;4987934;28;20027;-85
2022/07/12 10:58:34;;;;;;;2.22;0.68;;;23.10;91.60;;;;;;4992712;28;20030;-85
2022/07/12 11:01:03;;;;;;;0.40;0.40;;;23.10;91.60;;;;;;5007913;28;20061;-85
2022/07/12 11:03:40;;;;;;;1.08;0.50;;;23.10;91.50;;;;;;4993936;28;20541;-85
2022/07/12 11:06:09;;;;;;;2.40;0.60;;;23.10;91.60;;;;;;5007958;28;20041;-85
2022/07/12 11:09:00;;;;;;;1.08;0.57;;;23.10;91.60;;;;;;4992491;28;20037;-85
2022/07/12 11:11:31;;;;;;;1.80;0.47;;;23.20;91.60;;;;;;5013762;28;20069;-85
2022/07/12 11:13:58;;;;;;;1.17;0.60;;;23.20;91.50;;;;;;4996834;28;20531;-85
2022/07/12 11:16:25;;;;;;;1.67;0.60;;;23.10;91.40;;;;;;5010614;28;20116;-85
2022/07/12 11:18:52;;;;;;;1.05;0.50;;;23.20;91.40;;;;;;4996602;28;20517;-86
2022/07/12 11:21:18;;;;;;;1.98;0.68;;;23.20;91.40;;;;;;5007478;28;20026;-85
2022/07/12 11:23:44;;;;;;;1.38;0.50;;;23.20;91.30;;;;;;5009622;28;20029;-85
2022/07/12 11:26:11;;;;;;;1.20;0.50;;;23.20;91.30;;;;;;4984584;28;20117;-86
2022/07/12 11:28:38;;;;;;;1.52;0.57;;;23.30;91.40;;;;;;5025425;28;20025;-86
2022/07/12 11:31:07;;;;;;;1.63;0.50;;;23.30;91.30;;;;;;5020364;28;20038;-85
2022/07/12 11:33:36;;;;;;;1.00;0.40;;;23.30;91.30;;;;;;4996554;28;20049;-85
2022/07/12 11:36:04;;;;;;;1.83;0.50;;;23.30;91.30;;;;;;5013154;28;20026;-85
2022/07/12 11:38:30;;;;;;;0.90;0.50;;;23.30;91.30;;;;;;5020667;28;20068;-85
2022/07/12 11:40:59;;;;;;;1.02;0.60;;;23.30;91.20;;;;;;4994982;28;20029;-85
2022/07/12 11:43:26;;;;;;;1.15;0.50;;;23.30;91.20;;;;;;5012387;28;20425;-85
2022/07/12 11:45:53;;;;;;;0.77;0.60;;;23.40;91.20;;;;;;5027859;28;20083;-85
2022/07/12 11:48:20;;;;;;;1.63;0.40;;;23.40;91.20;;;;;;4995307;28;20034;-85
2022/07/12 11:50:46;;;;;;;0.60;0.22;;;23.40;91.00;;;;;;5012635;28;20036;-85
2022/07/12 11:53:22;;;;;;;1.45;0.50;;;23.40;90.90;;;;;;4995095;28;20124;-85
2022/07/12 11:55:50;;;;;;;0.80;0.40;;;23.40;90.90;;;;;;4994575;28;20030;-85
2022/07/12 11:58:18;;;;;;;0.95;0.45;;;23.40;91.00;;;;;;5006061;28;20088;-85
2022/07/12 12:00:45;;;;;;;2.20;0.40;;;23.40;90.90;;;;;;4981836;28;20037;-85
2022/07/12 12:03:13;;;;;;;4.45;0.40;;;23.40;90.90;;;;;;5013538;28;20389;-85
2022/07/12 12:05:38;;;;;;;2.25;0.40;;;23.40;90.90;;;;;;4995076;28;20080;-85
2022/07/12 12:08:06;;;;;;;1.20;0.40;;;23.40;90.90;;;;;;4993739;28;20458;-85
2022/07/12 12:10:33;;;;;;;0.40;0.35;;;23.40;90.90;;;;;;5012124;28;20040;-85
2022/07/12 12:13:00;;;;;;;0.75;0.43;;;23.50;91.00;;;;;;5020089;28;20030;-85
2022/07/12 12:15:28;;;;;;;0.55;0.30;;;23.50;90.90;;;;;;5011214;28;20540;-85
2022/07/12 12:17:55;;;;;;;0.80;0.38;;;23.50;90.90;;;;;;5016279;28;20018;-86
2022/07/12 12:20:25;;;;;;;2.50;0.43;;;23.50;90.80;;;;;;4994612;28;20065;-85
2022/07/12 12:22:53;;;;;;;0.85;0.40;;;23.50;90.70;;;;;;4995226;28;20092;-85
2022/07/12 12:25:20;;;;;;;2.67;0.30;;;23.50;90.80;;;;;;5011495;28;20022;-84
2022/07/12 12:28:02;;;;;;;2.38;0.20;;;23.60;90.70;;;;;;4997805;28;20029;-85
2022/07/12 12:30:31;;;;;;;2.05;0.30;;;23.60;90.70;;;;;;4993811;28;20033;-86
2022/07/12 12:32:58;;;;;;;0.50;0.40;;;23.60;90.70;;;;;;4994398;28;20030;-86
2022/07/12 12:35:30;;;;;;;0.73;0.40;;;23.60;90.70;;;;;;5017228;28;20096;-86
2022/07/12 12:38:01;;;;;;;0.73;0.52;;;23.70;90.60;;;;;;4995680;28;20125;-86
2022/07/12 12:40:29;;;;;;;4.18;0.38;;;23.70;90.50;;;;;;4990358;28;20021;-86
2022/07/12 12:43:07;;;;;;;0.50;0.30;;;23.80;90.30;;;;;;4985446;28;20466;-86
2022/07/12 12:45:34;;;;;;;0.30;0.20;;;23.80;90.30;;;;;;5010895;28;20030;-86
2022/07/12 12:48:01;;;;;;;0.55;0.30;;;23.80;90.20;;;;;;5012047;28;20025;-86
2022/07/12 12:50:46;;;;;;;1.23;0.30;;;23.90;90.10;;;;;;4994050;28;20111;-86
2022/07/12 12:53:12;;;;;;;0.40;0.30;;;24.00;89.50;;;;;;4995903;28;20034;-87
2022/07/12 12:55:38;;;;;;;0.57;0.30;;;24.10;89.40;;;;;;5012320;28;20050;-86
2022/07/12 12:58:04;;;;;;;3.78;0.30;;;24.20;89.40;;;;;;4997916;28;20026;-86